createdAt,value
2023-04-16T00:01:08.217Z,100202.47
2023-04-16T00:03:36.228Z,100212.31
2023-04-16T00:06:04.328Z,100208.75
2023-04-16T00:08:32.245Z,100216.09
2023-04-16T00:11:00.045Z,100216.75
2023-04-16T00:13:28.119Z,100224.25
2023-04-16T00:15:55.915Z,100218.81
2023-04-16T00:18:23.734Z,100218.81
2023-04-16T00:20:51.497Z,100215.41
2023-04-16T00:23:20.570Z,100221.06
2023-04-16T00:25:48.318Z,100225.28
2023-04-16T00:28:16.274Z,100222.72
2023-04-16T00:30:44.112Z,100225.63
2023-04-16T00:33:11.988Z,100228.84
2023-04-16T00:38:21.027Z,100229.00
2023-04-16T00:40:48.824Z,100225.63
2023-04-16T00:43:16.740Z,100227.72
2023-04-16T00:45:44.630Z,100237.19
2023-04-16T00:48:12.608Z,100232.09
2023-04-16T00:50:40.470Z,100234.00
2023-04-16T00:53:08.400Z,100225.16
2023-04-16T00:55:36.769Z,100233.78
2023-04-16T00:58:04.557Z,100234.81
2023-04-16T01:00:32.505Z,100234.00
2023-04-16T01:03:00.492Z,100232.09
2023-04-16T01:05:28.449Z,100225.31
2023-04-16T01:07:56.382Z,100224.50
2023-04-16T01:10:24.242Z,100234.53
2023-04-16T01:12:52.256Z,100231.63
2023-04-16T01:15:20.039Z,100231.81
2023-04-16T01:17:48.034Z,100231.81
2023-04-16T01:20:16.181Z,100238.94
2023-04-16T01:22:44.034Z,100241.31
2023-04-16T01:25:12.006Z,100245.22
2023-04-16T01:27:39.998Z,100246.06
2023-04-16T01:30:07.807Z,100251.31
2023-04-16T01:32:35.665Z,100244.38
2023-04-16T01:35:03.979Z,100247.28
2023-04-16T01:37:32.011Z,100245.41
2023-04-16T01:39:59.811Z,100253.56
2023-04-16T01:42:28.237Z,100256.94
2023-04-16T01:44:56.091Z,100255.25
2023-04-16T01:47:23.939Z,100248.97
2023-04-16T01:49:51.869Z,100256.94
2023-04-16T01:52:19.738Z,100264.59
2023-04-16T01:54:47.535Z,100259.84
2023-04-16T01:57:15.495Z,100259.00
2023-04-16T01:59:46.090Z,100255.63
2023-04-16T02:02:14.628Z,100256.66
2023-04-16T02:04:42.484Z,100261.91
2023-04-16T02:07:10.401Z,100256.66
2023-04-16T02:09:38.197Z,100253.94
2023-04-16T02:12:06.035Z,100255.16
2023-04-16T02:14:33.825Z,100255.97
2023-04-16T02:17:03.997Z,100261.06
2023-04-16T02:19:32.069Z,100262.75
2023-04-16T02:22:01.528Z,100257.03
2023-04-16T02:24:29.366Z,100257.84
2023-04-16T02:26:57.188Z,100262.47
2023-04-16T02:29:24.950Z,100266.03
2023-04-16T02:31:52.797Z,100265.81
2023-04-16T02:34:20.869Z,100274.66
2023-04-16T02:36:49.382Z,100265.81
2023-04-16T02:39:17.219Z,100266.84
2023-04-16T02:41:45.012Z,100272.13
2023-04-16T02:44:12.817Z,100272.28
2023-04-16T02:46:40.974Z,100276.69
2023-04-16T02:49:08.947Z,100276.69
2023-04-16T02:51:36.903Z,100277.38
2023-04-16T02:54:04.834Z,100277.56
2023-04-16T02:59:24.135Z,100278.94
2023-04-16T03:01:52.214Z,100278.94
2023-04-16T03:04:20.198Z,100278.28
2023-04-16T03:06:48.089Z,100277.91
2023-04-16T03:09:16.122Z,100284.75
2023-04-16T03:11:43.987Z,100288.97
2023-04-16T03:14:11.936Z,100286.25
2023-04-16T03:16:39.717Z,100285.59
2023-04-16T03:19:07.744Z,100283.53
2023-04-16T03:21:35.735Z,100284.38
2023-04-16T03:24:03.685Z,100287.94
2023-04-16T03:26:31.577Z,100291.03
2023-04-16T03:28:59.465Z,100304.63
2023-04-16T03:31:27.324Z,100295.63
2023-04-16T03:33:55.184Z,100292.72
2023-04-16T03:36:23.408Z,100296.09
2023-04-16T03:38:51.209Z,100301.75
2023-04-16T03:41:19.113Z,100302.56
2023-04-16T03:43:46.906Z,100301.06
2023-04-16T03:46:17.472Z,100302.38
2023-04-16T03:48:45.574Z,100309.03
2023-04-16T03:51:13.389Z,100312.41
2023-04-16T03:53:41.243Z,100307.19
2023-04-16T03:56:11.220Z,100312.63
2023-04-16T03:58:39.193Z,100317.38
2023-04-16T04:01:07.036Z,100316.72
2023-04-16T04:03:35.243Z,100318.22
2023-04-16T04:06:03.217Z,100320.94
2023-04-16T04:08:31.036Z,100321.97
2023-04-16T04:10:58.838Z,100330.47
2023-04-16T04:13:26.667Z,100333.50
2023-04-16T04:15:54.658Z,100331.81
2023-04-16T04:18:22.540Z,100337.25
2023-04-16T04:20:50.305Z,100337.72
2023-04-16T04:23:18.161Z,100334.38
2023-04-16T04:25:46.112Z,100338.09
2023-04-16T04:28:13.946Z,100338.94
2023-04-16T04:30:41.842Z,100340.44
2023-04-16T04:33:09.668Z,100341.31
2023-04-16T04:35:39.597Z,100346.56
2023-04-16T04:38:07.407Z,100348.81
2023-04-16T04:40:35.293Z,100350.84
2023-04-16T04:43:03.076Z,100354.41
2023-04-16T04:45:32.122Z,100354.63
2023-04-16T04:48:00.108Z,100354.78
2023-04-16T04:50:28.475Z,100353.88
2023-04-16T04:52:58.558Z,100356.91
2023-04-16T04:55:26.399Z,100360.09
2023-04-16T04:57:54.290Z,100367.06
2023-04-16T05:00:22.088Z,100371.28
2023-04-16T05:02:50.309Z,100366.50
2023-04-16T05:05:20.642Z,100371.47
2023-04-16T05:07:48.533Z,100371.41
2023-04-16T05:10:16.413Z,100380.66
2023-04-16T05:12:44.785Z,100387.28
2023-04-16T05:15:12.749Z,100380.59
2023-04-16T05:17:40.656Z,100380.06
2023-04-16T05:20:10.617Z,100392.44
2023-04-16T05:22:38.475Z,100389.88
2023-04-16T05:25:06.350Z,100399.53
2023-04-16T05:27:34.192Z,100397.22
2023-04-16T05:30:04.318Z,100403.88
2023-04-16T05:32:32.184Z,100405.13
2023-04-16T05:35:00.103Z,100409.06
2023-04-16T05:37:27.925Z,100405.88
2023-04-16T05:40:00.704Z,100403.53
2023-04-16T05:42:33.146Z,100407.50
2023-04-16T05:45:01.003Z,100416.25
2023-04-16T05:47:28.956Z,100414.56
2023-04-16T05:49:56.750Z,100419.53
2023-04-16T05:52:24.552Z,100419.72
2023-04-16T05:54:52.427Z,100421.78
2023-04-16T05:57:20.485Z,100429.75
2023-04-16T05:59:50.816Z,100425.53
2023-04-16T06:02:18.632Z,100433.91
2023-04-16T06:04:46.689Z,100431.75
2023-04-16T06:07:14.483Z,100438.25
2023-04-16T06:09:44.108Z,100440.47
2023-04-16T06:12:11.953Z,100441.91
2023-04-16T06:14:39.926Z,100437.00
2023-04-16T06:17:07.985Z,100439.56
2023-04-16T06:19:36.315Z,100447.06
2023-04-16T06:22:05.424Z,100442.16
2023-04-16T06:24:33.214Z,100447.34
2023-04-16T06:27:01.147Z,100450.22
2023-04-16T06:29:40.616Z,100453.72
2023-04-16T06:32:09.580Z,100454.47
2023-04-16T06:34:37.386Z,100463.00
2023-04-16T06:37:05.294Z,100464.34
2023-04-16T06:39:33.316Z,100462.69
2023-04-16T06:42:01.408Z,100470.19
2023-04-16T06:44:29.406Z,100465.09
2023-04-16T06:46:57.247Z,100473.44
2023-04-16T06:49:25.234Z,100470.59
2023-04-16T06:51:53.059Z,100470.25
2023-04-16T06:54:21.019Z,100475.22
2023-04-16T06:56:48.783Z,100483.28
2023-04-16T06:59:16.557Z,100478.72
2023-04-16T07:01:44.400Z,100485.09
2023-04-16T07:04:12.264Z,100473.53
2023-04-16T07:06:40.091Z,100480.72
2023-04-16T07:09:08.236Z,100486.16
2023-04-16T07:11:36.159Z,100479.19
2023-04-16T07:14:03.943Z,100479.88
2023-04-16T07:16:32.114Z,100483.94
2023-04-16T07:18:59.967Z,100484.78
2023-04-16T07:21:27.977Z,100490.84
2023-04-16T07:23:56.215Z,100494.19
2023-04-16T07:26:24.183Z,100496.84
2023-04-16T07:28:52.000Z,100504.09
2023-04-16T07:31:20.193Z,100496.38
2023-04-16T07:33:48.107Z,100502.97
2023-04-16T07:36:16.336Z,100507.22
2023-04-16T07:38:44.398Z,100511.44
2023-04-16T07:41:12.222Z,100510.59
2023-04-16T07:43:40.117Z,100517.72
2023-04-16T07:46:08.025Z,100519.44
2023-04-16T07:48:36.018Z,100524.91
2023-04-16T07:51:03.943Z,100524.91
2023-04-16T07:53:31.914Z,100526.13
2023-04-16T07:55:59.710Z,100528.00
2023-04-16T07:58:27.511Z,100541.13
2023-04-16T08:00:55.333Z,100538.59
2023-04-16T08:03:23.565Z,100538.78
2023-04-16T08:05:51.676Z,100541.22
2023-04-16T08:08:19.469Z,100540.44
2023-04-16T08:10:47.296Z,100536.19
2023-04-16T08:13:15.532Z,100544.75
2023-04-16T08:15:43.339Z,100540.06
2023-04-16T08:18:15.584Z,100545.50
2023-04-16T08:20:43.424Z,100549.53
2023-04-16T08:23:11.293Z,100546.63
2023-04-16T08:25:39.166Z,100552.97
2023-04-16T08:28:06.955Z,100561.88
2023-04-16T08:30:34.841Z,100554.56
2023-04-16T08:33:02.804Z,100564.28
2023-04-16T08:35:30.770Z,100560.22
2023-04-16T08:38:02.172Z,100563.16
2023-04-16T08:40:30.720Z,100570.47
2023-04-16T08:42:58.500Z,100576.25
2023-04-16T08:45:26.316Z,100580.84
2023-04-16T08:47:54.170Z,100574.72
2023-04-16T08:50:22.096Z,100576.97
2023-04-16T08:52:49.922Z,100587.03
2023-04-16T08:55:17.765Z,100583.81
2023-04-16T08:57:45.567Z,100592.31
2023-04-16T09:00:13.390Z,100588.94
2023-04-16T09:02:41.392Z,100590.16
2023-04-16T09:05:09.304Z,100591.38
2023-04-16T09:07:37.073Z,100596.28
2023-04-16T09:10:04.817Z,100588.13
2023-04-16T09:12:32.657Z,100599.22
2023-04-16T09:15:02.889Z,100601.94
2023-04-16T09:17:30.763Z,100598.53
2023-04-16T09:19:58.625Z,100601.94
2023-04-16T09:22:26.388Z,100609.41
2023-04-16T09:24:54.257Z,100614.19
2023-04-16T09:27:23.279Z,100609.78
2023-04-16T09:29:52.562Z,100615.22
2023-04-16T09:32:20.405Z,100624.38
2023-04-16T09:34:48.293Z,100622.34
2023-04-16T09:37:16.779Z,100621.66
2023-04-16T09:39:44.525Z,100629.47
2023-04-16T09:42:12.265Z,100630.66
2023-04-16T09:44:40.189Z,100633.59
2023-04-16T09:47:08.020Z,100634.44
2023-04-16T09:49:36.305Z,100631.03
2023-04-16T09:52:04.127Z,100635.63
2023-04-16T09:54:31.878Z,100630.19
2023-04-16T09:56:59.668Z,100632.22
2023-04-16T09:59:27.465Z,100637.31
2023-04-16T10:02:15.005Z,100639.38
2023-04-16T10:04:43.023Z,100640.38
2023-04-16T10:07:10.882Z,100642.75
2023-04-16T10:09:38.764Z,100647.34
2023-04-16T10:12:06.903Z,100651.59
2023-04-16T10:14:35.004Z,100657.03
2023-04-16T10:17:03.324Z,100655.00
2023-04-16T10:19:31.688Z,100656.69
2023-04-16T10:21:59.577Z,100663.16
2023-04-16T10:24:27.321Z,100668.28
2023-04-16T10:26:55.395Z,100667.59
2023-04-16T10:29:23.252Z,100664.41
2023-04-16T10:31:51.021Z,100663.34
2023-04-16T10:34:18.888Z,100668.66
2023-04-16T10:36:46.683Z,100669.50
2023-04-16T10:39:17.034Z,100671.38
2023-04-16T10:41:45.200Z,100670.84
2023-04-16T10:44:13.005Z,100669.97
2023-04-16T10:46:40.828Z,100672.69
2023-04-16T10:49:08.917Z,100677.28
2023-04-16T10:51:36.866Z,100679.19
2023-04-16T10:54:04.694Z,100681.22
2023-04-16T10:56:32.492Z,100677.66
2023-04-16T10:59:00.437Z,100677.28
2023-04-16T11:01:28.267Z,100680.22
2023-04-16T11:03:56.214Z,100683.94
2023-04-16T11:06:24.202Z,100677.66
2023-04-16T11:08:55.100Z,100677.84
2023-04-16T11:11:23.270Z,100676.44
2023-04-16T11:13:51.136Z,100687.66
2023-04-16T11:16:18.962Z,100682.91
2023-04-16T11:18:51.522Z,100686.63
2023-04-16T11:21:19.699Z,100680.34
2023-04-16T11:23:47.553Z,100675.94
2023-04-16T11:26:15.574Z,100677.63
2023-04-16T11:28:43.422Z,100682.38
2023-04-16T11:31:11.238Z,100688.03
2023-04-16T11:33:39.000Z,100681.22
2023-04-16T11:36:07.022Z,100697.19
2023-04-16T11:38:35.281Z,100699.25
2023-04-16T11:41:03.397Z,100704.72
2023-04-16T11:43:32.094Z,100700.47
2023-04-16T11:45:59.936Z,100698.56
2023-04-16T11:48:27.684Z,100706.38
2023-04-16T11:50:55.568Z,100704.03
2023-04-16T11:53:23.316Z,100711.16
2023-04-16T11:58:19.288Z,100709.78
2023-04-16T12:00:47.901Z,100716.75
2023-04-16T12:03:15.931Z,100716.75
2023-04-16T12:05:44.507Z,100719.97
2023-04-16T12:08:12.354Z,100722.53
2023-04-16T12:10:40.696Z,100714.19
2023-04-16T12:13:08.538Z,100721.34
2023-04-16T12:15:36.388Z,100719.09
2023-04-16T12:18:04.262Z,100717.22
2023-04-16T12:20:32.041Z,100727.47
2023-04-16T12:23:01.492Z,100718.75
2023-04-16T12:25:29.276Z,100731.66
2023-04-16T12:27:58.157Z,100725.63
2023-04-16T12:30:26.220Z,100725.00
2023-04-16T12:32:54.727Z,100726.56
2023-04-16T12:35:23.852Z,100726.28
2023-04-16T12:37:51.775Z,100725.38
2023-04-16T12:40:19.617Z,100730.56
2023-04-16T12:42:47.477Z,100731.53
2023-04-16T12:45:15.301Z,100730.84
2023-04-16T12:47:43.177Z,100732.38
2023-04-16T12:50:11.186Z,100728.75
2023-04-16T12:52:39.020Z,100732.38
2023-04-16T12:55:07.142Z,100729.81
2023-04-16T12:57:34.970Z,100729.81
2023-04-16T13:00:04.425Z,100732.72
2023-04-16T13:02:32.532Z,100727.06
2023-04-16T13:05:00.417Z,100731.03
2023-04-16T13:07:28.320Z,100733.91
2023-04-16T13:09:56.158Z,100739.91
2023-04-16T13:12:24.020Z,100741.13
2023-04-16T13:14:51.812Z,100745.25
2023-04-16T13:17:19.631Z,100752.59
2023-04-16T13:19:47.653Z,100745.78
2023-04-16T13:22:15.444Z,100742.56
2023-04-16T13:24:43.277Z,100747.19
2023-04-16T13:27:11.453Z,100750.28
2023-04-16T13:29:39.226Z,100743.97
2023-04-16T13:32:08.810Z,100751.13
2023-04-16T13:34:36.668Z,100753.00
2023-04-16T13:37:04.689Z,100747.25
2023-04-16T13:39:32.550Z,100746.56
2023-04-16T13:42:00.361Z,100749.66
2023-04-16T13:44:28.214Z,100755.13
2023-04-16T13:46:56.262Z,100746.28
2023-04-16T13:49:24.167Z,100750.88
2023-04-16T13:51:51.967Z,100748.69
2023-04-16T13:54:19.932Z,100751.56
2023-04-16T13:56:47.710Z,100754.66
2023-04-16T13:59:16.751Z,100758.81
2023-04-16T14:01:44.600Z,100754.34
2023-04-16T14:04:12.473Z,100766.03
2023-04-16T14:06:40.348Z,100761.91
2023-04-16T14:09:09.707Z,100757.34
2023-04-16T14:11:37.737Z,100763.84
2023-04-16T14:14:05.694Z,100767.09
2023-04-16T14:16:33.552Z,100764.41
2023-04-16T14:19:01.412Z,100773.13
2023-04-16T14:21:29.275Z,100766.16
2023-04-16T14:23:59.268Z,100764.09
2023-04-16T14:26:27.194Z,100765.25
2023-04-16T14:28:55.004Z,100764.94
2023-04-16T14:31:23.574Z,100770.44
2023-04-16T14:33:51.487Z,100770.75
2023-04-16T14:36:19.299Z,100764.91
2023-04-16T14:38:47.127Z,100767.94
2023-04-16T14:41:14.907Z,100768.25
2023-04-16T14:43:44.387Z,100768.56
2023-04-16T14:46:12.477Z,100770.59
2023-04-16T14:48:40.350Z,100767.13
2023-04-16T14:51:08.175Z,100771.53
2023-04-16T14:53:36.570Z,100775.78
2023-04-16T14:56:04.357Z,100773.06
2023-04-16T14:58:32.374Z,100771.00
2023-04-16T15:01:00.290Z,100768.44
2023-04-16T15:03:28.321Z,100774.09
2023-04-16T15:05:56.383Z,100773.25
2023-04-16T15:08:24.394Z,100771.75
2023-04-16T15:10:52.273Z,100774.63
2023-04-16T15:13:20.232Z,100779.41
2023-04-16T15:15:48.612Z,100782.34
2023-04-16T15:18:16.427Z,100777.41
2023-04-16T15:20:44.263Z,100777.41
2023-04-16T15:23:12.039Z,100783.91
2023-04-16T15:25:39.807Z,100783.25
2023-04-16T15:28:07.635Z,100785.13
2023-04-16T15:30:35.443Z,100786.97
2023-04-16T15:33:03.389Z,100780.00
2023-04-16T15:35:31.354Z,100783.59
2023-04-16T15:37:59.201Z,100780.38
2023-04-16T15:40:27.009Z,100787.75
2023-04-16T15:42:54.786Z,100794.56
2023-04-16T15:45:22.599Z,100794.94
2023-04-16T15:47:51.550Z,100797.56
2023-04-16T15:50:19.565Z,100795.34
2023-04-16T15:52:47.406Z,100790.06
2023-04-16T15:55:15.193Z,100798.66
2023-04-16T15:57:43.008Z,100798.34
2023-04-16T16:00:14.222Z,100804.16
2023-04-16T16:02:42.388Z,100799.59
2023-04-16T16:05:10.362Z,100804.72
2023-04-16T16:07:38.163Z,100801.66
2023-04-16T16:10:06.644Z,100806.63
2023-04-16T16:12:34.452Z,100806.63
2023-04-16T16:15:02.474Z,100814.81
2023-04-16T16:17:30.848Z,100815.13
2023-04-16T16:19:58.729Z,100817.13
2023-04-16T16:22:26.555Z,100816.78
2023-04-16T16:24:54.539Z,100815.47
2023-04-16T16:27:22.708Z,100821.94
2023-04-16T16:29:50.549Z,100820.38
2023-04-16T16:32:18.376Z,100822.75
2023-04-16T16:34:46.131Z,100826.84
2023-04-16T16:37:13.974Z,100829.03
2023-04-16T16:39:41.875Z,100823.41
2023-04-16T16:42:09.744Z,100826.81
2023-04-16T16:44:37.600Z,100828.50
2023-04-16T16:47:05.688Z,100833.63
2023-04-16T16:49:33.614Z,100831.22
2023-04-16T16:52:02.193Z,100841.28
2023-04-16T16:54:30.012Z,100829.69
2023-04-16T16:56:58.700Z,100832.78
2023-04-16T16:59:26.502Z,100840.13
2023-04-16T17:01:54.469Z,100835.50
2023-04-16T17:04:22.530Z,100842.69
2023-04-16T17:06:50.862Z,100845.06
2023-04-16T17:09:19.134Z,100840.47
2023-04-16T17:11:46.902Z,100844.41
2023-04-16T17:14:14.666Z,100841.50
2023-04-16T17:16:42.576Z,100845.63
2023-04-16T17:19:12.361Z,100856.19
2023-04-16T17:21:40.249Z,100852.97
2023-04-16T17:24:08.140Z,100850.22
2023-04-16T17:26:35.889Z,100850.38
2023-04-16T17:29:06.986Z,100858.25
2023-04-16T17:31:35.029Z,100856.34
2023-04-16T17:34:04.950Z,100864.34
2023-04-16T17:36:32.846Z,100857.72
2023-04-16T17:39:00.782Z,100867.63
2023-04-16T17:41:28.559Z,100864.72
2023-04-16T17:43:56.343Z,100873.09
2023-04-16T17:46:24.207Z,100863.56
2023-04-16T17:48:52.089Z,100876.31
2023-04-16T17:51:19.870Z,100878.53
2023-04-16T17:53:47.919Z,100879.06
2023-04-16T17:56:15.933Z,100888.06
2023-04-16T17:58:43.903Z,100880.25
2023-04-16T18:01:11.937Z,100889.44
2023-04-16T18:03:40.355Z,100886.34
2023-04-16T18:06:10.475Z,100890.09
2023-04-16T18:08:38.663Z,100891.09
2023-04-16T18:11:06.981Z,100900.25
2023-04-16T18:13:34.801Z,100895.44
2023-04-16T18:16:02.736Z,100895.09
2023-04-16T18:18:30.808Z,100899.50
2023-04-16T18:20:58.656Z,100901.88
2023-04-16T18:23:27.345Z,100903.75
2023-04-16T18:25:55.234Z,100902.91
2023-04-16T18:28:23.018Z,100911.09
2023-04-16T18:30:52.414Z,100917.53
2023-04-16T18:33:48.687Z,100909.56
2023-04-16T18:36:08.399Z,100917.91
2023-04-16T18:38:41.344Z,100912.63
2023-04-16T18:41:14.379Z,100917.41
2023-04-16T18:43:42.413Z,100920.97
2023-04-16T18:46:10.617Z,100925.59
2023-04-16T18:48:38.539Z,100933.94
2023-04-16T18:51:06.514Z,100931.41
2023-04-16T18:53:34.347Z,100939.75
2023-04-16T18:56:02.726Z,100937.22
2023-04-16T18:58:30.563Z,100941.78
2023-04-16T19:00:59.058Z,100933.13
2023-04-16T19:03:27.341Z,100934.47
2023-04-16T19:05:55.328Z,100939.44
2023-04-16T19:08:23.272Z,100939.94
2023-04-16T19:10:51.039Z,100942.19
2023-04-16T19:13:18.878Z,100940.47
2023-04-16T19:15:46.773Z,100945.91
2023-04-16T19:18:14.801Z,100950.19
2023-04-16T19:20:42.658Z,100938.63
2023-04-16T19:23:10.674Z,100942.88
2023-04-16T19:25:38.477Z,100939.63
2023-04-16T19:28:06.366Z,100946.94
2023-04-16T19:30:34.148Z,100946.63
2023-04-16T19:33:02.233Z,100954.78
2023-04-16T19:35:30.311Z,100949.84
2023-04-16T19:37:58.641Z,100960.59
2023-04-16T19:40:26.464Z,100954.47
2023-04-16T19:42:54.932Z,100952.22
2023-04-16T19:45:27.189Z,100958.19
2023-04-16T19:47:55.515Z,100956.50
2023-04-16T19:50:23.912Z,100957.69
2023-04-16T19:52:51.700Z,100954.13
2023-04-16T19:55:19.598Z,100954.97
2023-04-16T19:57:47.428Z,100951.38
2023-04-16T20:00:15.288Z,100954.47
2023-04-16T20:02:43.217Z,100958.53
2023-04-16T20:05:11.200Z,100961.59
2023-04-16T20:07:39.118Z,100969.06
2023-04-16T20:10:06.982Z,100961.41
2023-04-16T20:12:34.826Z,100974.19
2023-04-16T20:15:02.882Z,100968.03
2023-04-16T20:17:31.044Z,100972.47
2023-04-16T20:20:00.917Z,100970.25
2023-04-16T20:22:28.694Z,100969.75
2023-04-16T20:24:56.537Z,100972.13
2023-04-16T20:27:24.333Z,100974.84
2023-04-16T20:29:52.130Z,100972.63
2023-04-16T20:32:20.097Z,100975.50
2023-04-16T20:34:48.926Z,100969.91
2023-04-16T20:37:16.751Z,100973.47
2023-04-16T20:39:45.326Z,100956.28
2023-04-16T20:42:13.316Z,100964.63
2023-04-16T20:44:50.398Z,100969.75
2023-04-16T20:47:18.620Z,100969.41
2023-04-16T20:49:47.304Z,100974.16
2023-04-16T20:52:15.200Z,100967.88
2023-04-16T20:54:42.997Z,100974.16
2023-04-16T20:57:10.912Z,100970.75
2023-04-16T20:59:38.710Z,100973.81
2023-04-16T21:02:07.783Z,100973.31
2023-04-16T21:04:36.018Z,100977.22
2023-04-16T21:07:04.532Z,100979.94
2023-04-16T21:09:32.449Z,100975.69
2023-04-16T21:12:02.564Z,100973.97
2023-04-16T21:14:30.512Z,100969.56
2023-04-16T21:16:58.297Z,100973.97
2023-04-16T21:19:26.264Z,100983.66
2023-04-16T21:21:54.043Z,100980.44
2023-04-16T21:24:21.868Z,100981.28
2023-04-16T21:26:49.645Z,100987.41
2023-04-16T21:29:17.763Z,100979.25
2023-04-16T21:31:45.605Z,100980.59
2023-04-16T21:34:13.580Z,100986.03
2023-04-16T21:36:41.365Z,100985.03
2023-04-16T21:39:09.286Z,100979.25
2023-04-16T21:41:37.178Z,100978.91
2023-04-16T21:44:05.053Z,100982.97
2023-04-16T21:46:32.953Z,100979.56
2023-04-16T21:49:00.792Z,100978.41
2023-04-16T21:51:30.142Z,100987.56
2023-04-16T21:53:58.129Z,100976.84
2023-04-16T21:56:25.943Z,100982.44
2023-04-16T21:58:53.755Z,100976.16
2023-04-16T22:01:21.765Z,100984.31
2023-04-16T22:03:52.249Z,100979.88
2023-04-16T22:06:20.643Z,100975.97
2023-04-16T22:08:50.073Z,100977.50
2023-04-16T22:11:18.050Z,100981.94
2023-04-16T22:13:46.427Z,100981.25
2023-04-16T22:16:14.479Z,100980.56
2023-04-16T22:18:42.883Z,100979.72
2023-04-16T22:21:10.674Z,100991.44
2023-04-16T22:23:38.510Z,100985.28
2023-04-16T22:26:06.492Z,100987.00
2023-04-16T22:28:34.263Z,100985.84
2023-04-16T22:31:02.218Z,100994.16
2023-04-16T22:33:30.130Z,100993.44
2023-04-16T22:35:57.944Z,100993.44
2023-04-16T22:38:25.845Z,100997.19
2023-04-16T22:40:53.696Z,100993.06
2023-04-16T22:43:21.594Z,100991.91
2023-04-16T22:45:49.447Z,100992.94
2023-04-16T22:48:17.291Z,100993.06
2023-04-16T22:50:45.925Z,100992.22
2023-04-16T22:53:13.714Z,100988.66
2023-04-16T22:55:41.525Z,100995.78
2023-04-16T22:58:09.749Z,100994.94
2023-04-16T23:00:37.735Z,100991.38
2023-04-16T23:03:05.785Z,100992.41
2023-04-16T23:05:34.719Z,100996.97
2023-04-16T23:08:02.645Z,100994.09
2023-04-16T23:10:30.472Z,100997.53
2023-04-16T23:12:58.278Z,100994.09
2023-04-16T23:15:26.136Z,100996.13
2023-04-16T23:17:53.962Z,100991.38
2023-04-16T23:20:21.790Z,101000.72
2023-04-16T23:22:49.612Z,100997.50
2023-04-16T23:25:18.183Z,100992.22
2023-04-16T23:27:46.038Z,100995.44
2023-04-16T23:30:13.843Z,100990.50
2023-04-16T23:32:41.652Z,100995.06
2023-04-16T23:35:09.588Z,100996.81
2023-04-16T23:37:37.395Z,100990.50
2023-04-16T23:40:05.225Z,100988.63
2023-04-16T23:42:33.000Z,100990.50
2023-04-16T23:45:00.755Z,100990.50
2023-04-16T23:47:28.593Z,100992.53
2023-04-16T23:49:56.535Z,100989.81
2023-04-16T23:52:24.330Z,100992.53
2023-04-16T23:54:52.155Z,100986.78
2023-04-16T23:57:19.956Z,100989.81
2023-04-16T23:59:47.803Z,100989.97
